TimePST,TemperatureF,Dew PointF,Humidity,Sea Level PressureIn,VisibilityMPH,Wind Direction,Wind SpeedMPH,Gust SpeedMPH,PrecipitationIn,Events,Conditions,WindDirDegrees,DateUTC
12:52 AM,32.0,30.9,96,30.17,0.2,Calm,Calm,-,N/A,Fog,Fog,0,2013-12-01 08:52:00
1:20 AM,32.0,30.2,93,30.12,0.5,SSE,3.5,-,N/A,Fog,Fog,160,2013-12-01 09:20:00
1:52 AM,32.0,30.9,96,30.14,0.2,South,3.5,-,N/A,Fog,Fog,170,2013-12-01 09:52:00
2:00 AM,32.0,30.2,93,30.10,0.5,Calm,Calm,-,N/A,Fog,Fog,0,2013-12-01 10:00:00
2:22 AM,32.0,30.2,93,30.10,0.2,Calm,Calm,-,N/A,Fog,Fog,0,2013-12-01 10:22:00
2:52 AM,30.9,30.9,100,30.12,0.5,Calm,Calm,-,N/A,Fog,Light Freezing Fog,0,2013-12-01 10:52:00
3:03 AM,30.2,30.2,100,30.07,0.2,SSE,3.5,-,0.00,Fog,Light Freezing Fog,160,2013-12-01 11:03:00
3:15 AM,30.2,30.2,100,30.06,0.5,Calm,Calm,-,0.00,Fog,Light Freezing Fog,0,2013-12-01 11:15:00
3:26 AM,30.2,30.2,100,30.05,0.2,Calm,Calm,-,0.00,Fog,Light Freezing Fog,0,2013-12-01 11:26:00
3:42 AM,30.2,30.2,100,30.03,0.2,SE,3.5,-,0.00,Fog-Rain,Light Freezing Rain,130,2013-12-01 11:42:00
3:49 AM,30.2,30.2,100,30.03,1.0,Calm,Calm,-,0.00,Rain,Light Freezing Rain,0,2013-12-01 11:49:00
3:50 AM,30.9,30.9,100,30.07,1.2,Calm,Calm,-,0.00,Rain,Light Freezing Rain,0,2013-12-01 11:50:00
4:34 AM,30.2,30.2,100,29.98,2.0,SSE,3.5,-,0.00,,Overcast,160,2013-12-01 12:34:00
4:52 AM,30.9,30.9,100,30.01,1.8,Calm,Calm,-,0.00,,Overcast,0,2013-12-01 12:52:00
5:01 AM,30.2,30.2,100,29.96,2.0,Calm,Calm,-,N/A,,Overcast,0,2013-12-01 13:01:00
5:52 AM,32.0,30.9,96,29.96,2.5,Calm,Calm,-,N/A,,Overcast,0,2013-12-01 13:52:00
6:29 AM,30.2,30.2,100,29.90,1.8,Calm,Calm,-,N/A,,Overcast,0,2013-12-01 14:29:00
6:52 AM,30.9,30.9,100,29.93,1.5,Calm,Calm,-,N/A,,Overcast,0,2013-12-01 14:52:00
7:39 AM,32.0,30.2,93,29.87,0.8,Calm,Calm,-,N/A,,Mist,0,2013-12-01 15:39:00
7:52 AM,32.0,30.9,96,29.90,0.2,Calm,Calm,-,N/A,Fog,Fog,0,2013-12-01 15:52:00
8:41 AM,30.2,30.2,100,29.82,0.8,SSW,9.2,-,N/A,,Overcast,210,2013-12-01 16:41:00
8:52 AM,30.9,30.0,96,29.85,0.2,SSW,10.4,-,N/A,Fog,Light Freezing Fog,210,2013-12-01 16:52:00
9:15 AM,32.0,30.2,93,29.82,0.2,SSW,8.1,-,N/A,Fog,Fog,210,2013-12-01 17:15:00
9:39 AM,30.2,30.2,100,29.84,0.2,NNW,6.9,-,N/A,Fog,Light Freezing Fog,340,2013-12-01 17:39:00
9:52 AM,30.9,30.0,96,29.88,0.2,North,6.9,-,N/A,Fog,Light Freezing Fog,360,2013-12-01 17:52:00
10:52 AM,32.0,32.0,100,29.88,0.2,ENE,6.9,-,N/A,Fog,Fog,60,2013-12-01 18:52:00
11:52 AM,35.1,35.1,100,29.86,0.2,East,4.6,-,N/A,Fog,Fog,80,2013-12-01 19:52:00
11:56 AM,35.6,35.6,100,29.82,1.0,ENE,3.5,-,N/A,,Overcast,60,2013-12-01 19:56:00
12:18 PM,35.6,35.6,100,29.83,2.5,Calm,Calm,-,N/A,,Overcast,0,2013-12-01 20:18:00
12:50 PM,37.4,35.6,93,29.83,3.0,NNE,6.9,-,N/A,,Mostly Cloudy,20,2013-12-01 20:50:00
12:52 PM,37.9,36.0,93,29.86,4.0,NNE,5.8,-,N/A,,Mostly Cloudy,20,2013-12-01 20:52:00
1:04 PM,37.4,35.6,93,29.82,5.0,NNE,6.9,-,N/A,,Scattered Clouds,20,2013-12-01 21:04:00
1:52 PM,39.0,36.0,89,29.84,5.0,SSE,3.5,-,N/A,,Clear,150,2013-12-01 21:52:00
2:52 PM,39.0,37.0,93,29.83,5.0,NW,3.5,-,N/A,,Clear,310,2013-12-01 22:52:00
3:52 PM,37.0,35.1,93,29.82,4.0,Calm,Calm,-,N/A,,Clear,0,2013-12-01 23:52:00
4:52 PM,35.1,34.0,96,29.81,3.0,NNW,6.9,-,N/A,,Scattered Clouds,330,2013-12-02 00:52:00
5:52 PM,34.0,34.0,100,29.79,3.0,SE,3.5,-,N/A,,Overcast,140,2013-12-02 01:52:00
6:52 PM,39.0,36.0,89,29.74,10.0,SSW,8.1,-,N/A,,Mostly Cloudy,210,2013-12-02 02:52:00
7:52 PM,46.9,39.9,77,29.70,10.0,South,10.4,-,N/A,,Clear,190,2013-12-02 03:52:00
8:52 PM,45.0,39.9,82,29.69,10.0,South,5.8,-,N/A,,Clear,190,2013-12-02 04:52:00
9:52 PM,46.9,37.9,71,29.67,10.0,WSW,13.8,-,N/A,,Clear,240,2013-12-02 05:52:00
10:52 PM,46.0,37.0,71,29.66,10.0,WSW,11.5,-,N/A,,Clear,240,2013-12-02 06:52:00
11:52 PM,46.0,37.9,73,29.64,10.0,SW,16.1,-,N/A,,Clear,230,2013-12-02 07:52:00